Time;durP1;ratioP1;P1;durP2;ratioP2;P2;SDS_P1;SDS_P2;PMS_P1;PMS_P2;Temp;Humidity;BMP_temperature;BMP_pressure;BME280_temperature;BME280_humidity;BME280_pressure;Samples;Min_cycle;Max_cycle;Signal;HPM_P1;HPM_P2
2021/12/22 00:02:04;;;;;;;39.50;19.40;;;;;;;-2.14;82.92;101566.88;1644886;86;27480;-81
2021/12/22 00:04:33;;;;;;;36.63;18.90;;;;;;;-2.13;83.03;101571.17;1646619;86;25327;-80
2021/12/22 00:06:59;;;;;;;42.20;18.37;;;;;;;-2.11;82.97;101568.00;1618712;87;25935;-81
2021/12/22 00:09:25;;;;;;;40.80;17.77;;;;;;;-2.11;83.00;101569.31;1592310;89;26643;-81
2021/12/22 00:11:51;;;;;;;34.40;17.30;;;;;;;-2.12;82.98;101566.78;1632220;87;26392;-82
2021/12/22 00:14:17;;;;;;;35.00;17.40;;;;;;;-2.12;82.96;101566.78;1648106;86;27463;-82
2021/12/22 00:16:44;;;;;;;39.60;19.73;;;;;;;-2.10;82.94;101570.17;1654909;86;25856;-82
2021/12/22 00:19:11;;;;;;;33.30;16.70;;;;;;;-2.10;82.90;101564.92;1646022;86;25840;-81
2021/12/22 00:21:37;;;;;;;33.13;16.32;;;;;;;-2.13;82.80;101572.48;1644281;86;25956;-81
2021/12/22 00:24:04;;;;;;;36.75;17.75;;;;;;;-2.15;82.66;101569.55;1615449;87;25796;-81
2021/12/22 00:26:30;;;;;;;37.63;17.25;;;;;;;-2.17;82.63;101574.04;1643132;85;28376;-82
2021/12/22 00:28:56;;;;;;;37.35;17.15;;;;;;;-2.14;82.81;101576.05;1641304;86;25890;-82
2021/12/22 00:31:23;;;;;;;35.40;17.10;;;;;;;-2.11;82.81;101581.12;1641926;86;25854;-81
2021/12/22 00:33:51;;;;;;;37.23;18.20;;;;;;;-2.09;82.80;101584.97;1641345;86;26420;-81
2021/12/22 00:36:22;;;;;;;42.45;18.27;;;;;;;-2.06;82.71;101581.73;1647158;86;26152;-81
2021/12/22 00:38:51;;;;;;;32.45;17.17;;;;;;;-2.08;82.41;101586.68;1637600;86;27430;-81
2021/12/22 00:41:18;;;;;;;33.67;16.42;;;;;;;-2.08;82.84;101588.84;1628988;85;25689;-81
2021/12/22 00:43:46;;;;;;;37.28;17.40;;;;;;;-2.11;82.71;101586.37;1644107;86;25793;-81
2021/12/22 00:46:13;;;;;;;35.78;18.37;;;;;;;-2.11;82.71;101586.37;1634982;86;26504;-82
2021/12/22 00:48:40;;;;;;;33.78;16.45;;;;;;;-2.10;82.83;101588.54;1650497;86;25345;-81
2021/12/22 00:51:07;;;;;;;31.12;16.87;;;;;;;-2.09;82.94;101595.47;1642289;86;27500;-80
2021/12/22 00:53:33;;;;;;;28.87;14.90;;;;;;;-2.09;82.93;101589.76;1639982;86;26114;-81
2021/12/22 00:56:02;;;;;;;31.93;15.28;;;;;;;-2.10;82.84;101588.08;1641459;86;25865;-81
2021/12/22 00:58:28;;;;;;;29.35;15.20;;;;;;;-2.12;82.80;101586.47;1650212;86;25835;-81
2021/12/22 01:00:54;;;;;;;30.48;14.68;;;;;;;-2.12;82.85;101595.65;1638849;86;25801;-82
2021/12/22 01:03:21;;;;;;;30.12;16.35;;;;;;;-2.20;82.85;101584.23;1646088;86;28227;-81
2021/12/22 01:05:47;;;;;;;34.03;16.10;;;;;;;-2.22;82.88;101582.64;1639529;86;25804;-81
2021/12/22 01:08:15;;;;;;;31.65;14.13;;;;;;;-2.17;82.95;101599.83;1650789;85;25790;-81
2021/12/22 01:10:41;;;;;;;30.43;15.78;;;;;;;-2.19;82.92;101599.06;1645822;86;25940;-82
2021/12/22 01:13:08;;;;;;;30.30;12.40;;;;;;;-2.17;83.06;101610.78;1647272;86;26389;-81
2021/12/22 01:15:36;;;;;;;29.75;13.80;;;;;;;-2.17;83.11;101606.84;1646908;86;27462;-81
2021/12/22 01:18:12;;;;;;;29.23;14.45;;;;;;;-2.18;83.04;101605.17;1651188;85;25862;-81
2021/12/22 01:20:52;;;;;;;27.77;12.73;;;;;;;-2.19;83.14;101607.39;1604016;87;25412;-82
2021/12/22 01:23:05;;;;;;;27.62;13.50;;;;;;;-2.18;83.13;101619.11;1639013;85;25983;-81
2021/12/22 01:25:37;;;;;;;30.90;13.80;;;;;;;-2.17;83.17;101610.78;1646192;86;25905;-81
2021/12/22 01:28:04;;;;;;;27.48;14.68;;;;;;;-2.15;83.22;101616.80;1654625;86;27524;-81
2021/12/22 01:30:32;;;;;;;27.13;13.62;;;;;;;-2.13;83.27;101624.13;1604143;87;25759;-82
2021/12/22 01:33:02;;;;;;;31.27;13.85;;;;;;;-2.10;83.40;101625.28;1585382;89;25862;-81
2021/12/22 01:35:32;;;;;;;29.37;14.50;;;;;;;-2.06;83.25;101622.42;1633549;86;26559;-81
2021/12/22 01:37:58;;;;;;;25.57;12.75;;;;;;;-2.08;83.13;101621.66;1650965;86;33355;-81
2021/12/22 01:40:25;;;;;;;26.97;13.03;;;;;;;-2.12;83.06;101621.44;1645602;86;27434;-81
2021/12/22 01:42:55;;;;;;;24.30;12.53;;;;;;;-2.13;83.18;101621.04;1642329;86;26683;-81
2021/12/22 01:51:08;;;;;;;23.15;11.63;;;;;;;-2.28;83.03;101627.55;1652671;86;25878;-82
2021/12/22 01:53:47;;;;;;;17.25;9.88;;;;;;;-2.30;83.21;101628.95;1638895;86;27442;-81
2021/12/22 01:56:24;;;;;;;20.85;11.30;;;;;;;-2.39;83.69;101613.23;1603635;86;25816;-82
2021/12/22 01:58:55;;;;;;;21.87;10.63;;;;;;;-2.39;83.69;101613.23;1654611;85;25858;-81
2021/12/22 02:01:22;;;;;;;24.27;12.85;;;;;;;-2.31;83.61;101615.47;1643211;85;25838;-82
2021/12/22 02:03:51;;;;;;;22.40;11.90;;;;;;;-2.28;83.63;101615.74;1642214;86;25282;-80
2021/12/22 02:06:18;;;;;;;22.90;12.23;;;;;;;-2.28;83.53;101616.59;1647855;86;27451;-81
2021/12/22 02:08:46;;;;;;;24.35;12.98;;;;;;;-2.37;83.46;101603.95;1641547;86;26595;-81
2021/12/22 02:11:16;;;;;;;17.52;10.25;;;;;;;-2.31;83.55;101607.59;1646261;86;25863;-82
2021/12/22 02:13:47;;;;;;;15.20;8.40;;;;;;;-2.33;83.26;101605.97;1651496;86;25816;-81
2021/12/22 02:16:15;;;;;;;20.45;11.25;;;;;;;-2.41;83.18;101607.67;1650921;85;25858;-81
2021/12/22 02:18:47;;;;;;;19.55;12.10;;;;;;;-2.47;83.26;101606.22;1638988;85;27533;-81
2021/12/22 02:21:16;;;;;;;19.77;12.03;;;;;;;-2.48;83.40;101603.20;1612889;87;26429;-81
2021/12/22 02:23:44;;;;;;;19.65;11.40;;;;;;;-2.46;83.43;101613.64;1647148;86;25779;-81
2021/12/22 02:26:16;;;;;;;23.52;12.75;;;;;;;-2.48;83.75;101608.94;1648279;86;26559;-81
2021/12/22 02:28:44;;;;;;;23.80;12.35;;;;;;;-2.48;83.75;101608.94;1610663;87;25921;-81
2021/12/22 02:31:13;;;;;;;20.65;12.07;;;;;;;-2.43;83.65;101610.38;1645322;86;28288;-80
2021/12/22 02:33:39;;;;;;;17.80;9.83;;;;;;;-2.43;83.65;101610.38;1638501;86;25752;-81
2021/12/22 02:36:09;;;;;;;17.98;10.40;;;;;;;-2.47;83.39;101607.54;1655295;86;25887;-81
2021/12/22 02:38:46;;;;;;;22.52;10.82;;;;;;;-2.48;83.49;101608.94;1641286;86;25999;-82
2021/12/22 02:41:17;;;;;;;17.62;9.53;;;;;;;-2.51;83.44;101607.31;1616000;87;25822;-82
2021/12/22 02:43:51;;;;;;;18.90;11.35;;;;;;;-2.58;83.27;101609.86;1618879;87;27476;-81
2021/12/22 02:46:26;;;;;;;17.27;9.70;;;;;;;-2.62;83.45;101614.88;1646476;86;25777;-81
2021/12/22 02:48:54;;;;;;;19.75;10.95;;;;;;;-2.66;83.38;101608.55;1637215;86;26150;-81
2021/12/22 02:51:22;;;;;;;18.57;10.80;;;;;;;-2.65;83.60;101602.41;1645556;86;26343;-81
2021/12/22 02:54:03;;;;;;;15.85;9.13;;;;;;;-2.62;83.66;101607.47;1645195;86;25807;-81
2021/12/22 02:56:30;;;;;;;22.52;12.85;;;;;;;-2.69;83.52;101606.08;1645165;85;27454;-81
2021/12/22 03:01:52;;;;;;;21.07;12.28;;;;;;;-2.72;83.75;101608.88;1645925;86;25839;-81
2021/12/22 03:04:03;;;;;;;22.13;12.50;;;;;;;-2.71;83.91;101611.86;1644601;86;25877;-80
2021/12/22 03:06:41;;;;;;;18.80;10.55;;;;;;;-2.67;84.05;101623.44;1652564;86;25821;-81
2021/12/22 03:09:20;;;;;;;19.60;11.00;;;;;;;-2.63;83.96;101614.97;1642400;85;27470;-81
2021/12/22 03:11:48;;;;;;;19.48;9.65;;;;;;;-2.64;83.78;101617.19;1638977;86;25314;-81
2021/12/22 03:14:17;;;;;;;22.62;12.35;;;;;;;-2.68;83.51;101620.90;1651588;86;25928;-83
2021/12/22 03:16:44;;;;;;;23.60;12.53;;;;;;;-2.73;83.50;101621.59;1645172;86;25883;-81
2021/12/22 03:19:18;;;;;;;18.77;11.18;;;;;;;-2.75;83.61;101624.30;1652215;85;25976;-81
2021/12/22 03:21:47;;;;;;;25.15;14.28;;;;;;;-2.73;83.61;101628.99;1641635;86;27461;-81
2021/12/22 03:24:17;;;;;;;25.90;14.03;;;;;;;-2.69;83.75;101633.16;1638390;86;25835;-81
2021/12/22 03:26:44;;;;;;;21.35;13.48;;;;;;;-2.61;83.85;101637.54;1645701;86;26307;-82
2021/12/22 03:29:17;;;;;;;25.05;13.05;;;;;;;-2.54;83.85;101635.00;1645844;86;25835;-81
2021/12/22 03:31:44;;;;;;;24.95;14.03;;;;;;;-2.51;83.70;101641.88;1652128;86;26346;-81
2021/12/22 03:34:14;;;;;;;23.12;13.62;;;;;;;-2.54;83.51;101644.18;1643070;86;27454;-81
2021/12/22 03:36:42;;;;;;;25.82;13.72;;;;;;;-2.54;83.63;101646.80;1656313;86;25995;-81
2021/12/22 03:39:11;;;;;;;25.45;14.35;;;;;;;-2.54;83.57;101641.55;1647400;86;25806;-80
2021/12/22 03:41:37;;;;;;;24.75;13.83;;;;;;;-2.56;83.61;101646.03;1631675;86;26009;-81
2021/12/22 03:44:05;;;;;;;20.48;12.18;;;;;;;-2.56;83.61;101646.03;1644591;86;25345;-81
2021/12/22 03:46:32;;;;;;;25.23;13.53;;;;;;;-2.55;83.59;101644.27;1652979;86;28286;-81
2021/12/22 03:48:58;;;;;;;24.45;12.78;;;;;;;-2.59;83.62;101647.48;1654242;86;26076;-81
2021/12/22 03:51:26;;;;;;;22.35;14.10;;;;;;;-2.52;83.68;101650.66;1649400;86;26048;-81
2021/12/22 03:53:52;;;;;;;24.47;13.68;;;;;;;-2.49;83.72;101659.23;1643578;86;26531;-81
2021/12/22 03:56:19;;;;;;;25.30;13.40;;;;;;;-2.46;83.76;101656.44;1645354;86;26566;-80
2021/12/22 03:58:46;;;;;;;29.65;15.10;;;;;;;-2.49;83.63;101657.06;1650827;84;27465;-81
2021/12/22 04:01:14;;;;;;;29.75;15.80;;;;;;;-2.49;83.63;101657.06;1617987;87;26273;-83
2021/12/22 04:03:42;;;;;;;32.15;16.32;;;;;;;-2.48;83.46;101656.16;1646086;86;25790;-81
2021/12/22 04:06:09;;;;;;;29.30;14.13;;;;;;;-2.45;83.52;101655.52;1644500;86;25923;-81
2021/12/22 04:08:35;;;;;;;29.10;15.32;;;;;;;-2.46;83.41;101662.17;1648895;85;25868;-81
2021/12/22 04:11:02;;;;;;;26.12;13.72;;;;;;;-2.46;83.41;101662.17;1632737;86;28242;-80
2021/12/22 04:13:28;;;;;;;29.37;14.60;;;;;;;-2.49;83.60;101657.92;1643684;86;25921;-81
2021/12/22 04:15:54;;;;;;;30.40;14.43;;;;;;;-2.42;83.55;101666.33;1638549;86;25597;-81
2021/12/22 04:18:22;;;;;;;26.30;13.53;;;;;;;-2.42;83.55;101666.33;1649466;85;25991;-81
2021/12/22 04:20:48;;;;;;;23.73;12.85;;;;;;;-2.43;83.54;101664.62;1615967;87;25960;-81
2021/12/22 04:23:15;;;;;;;23.67;14.13;;;;;;;-2.44;83.74;101665.56;1635952;86;28281;-81
2021/12/22 04:25:42;;;;;;;22.60;12.30;;;;;;;-2.45;83.62;101666.47;1636542;86;26687;-82
2021/12/22 04:28:10;;;;;;;24.40;13.65;;;;;;;-2.44;83.69;101670.81;1613086;87;25711;-81
2021/12/22 04:30:42;;;;;;;27.67;14.55;;;;;;;-2.43;83.72;101665.47;1629158;86;26542;-80
2021/12/22 04:33:10;;;;;;;24.92;15.30;;;;;;;-2.39;83.86;101674.02;1649608;86;25718;-81
2021/12/22 04:35:36;;;;;;;28.95;15.03;;;;;;;-2.39;83.79;101671.40;1643172;86;28269;-83
2021/12/22 04:38:04;;;;;;;28.15;14.68;;;;;;;-2.39;83.81;101668.78;1638913;86;25882;-81
2021/12/22 04:40:30;;;;;;;27.75;14.28;;;;;;;-2.37;83.91;101672.17;1641282;86;25808;-81
2021/12/22 04:42:56;;;;;;;24.43;13.40;;;;;;;-2.42;83.74;101671.09;1653006;86;25961;-81
2021/12/22 04:45:22;;;;;;;32.90;18.52;;;;;;;-2.43;83.87;101666.78;1629037;87;25952;-81
2021/12/22 04:47:50;;;;;;;29.27;14.90;;;;;;;-2.42;83.94;101670.27;1624879;86;27527;-82
2021/12/22 04:50:20;;;;;;;24.75;13.95;;;;;;;-2.39;83.94;101667.46;1654213;86;25809;-81
2021/12/22 04:52:58;;;;;;;28.65;14.85;;;;;;;-2.41;83.94;101671.94;1655759;85;25899;-81
2021/12/22 04:55:25;;;;;;;26.95;13.75;;;;;;;-2.38;83.92;101666.09;1635279;85;26453;-81
2021/12/22 04:57:54;;;;;;;27.95;14.78;;;;;;;-2.42;84.02;101661.08;1645890;86;25952;-81
2021/12/22 05:00:22;;;;;;;27.58;13.13;;;;;;;-2.42;84.02;101661.08;1643345;85;28278;-81
2021/12/22 05:02:49;;;;;;;33.28;17.82;;;;;;;-2.36;84.05;101670.80;1642751;86;25932;-81
2021/12/22 05:05:16;;;;;;;29.23;14.70;;;;;;;-2.34;84.12;101672.02;1652370;85;25786;-82
2021/12/22 05:07:44;;;;;;;27.42;14.00;;;;;;;-2.32;84.20;101672.80;1633096;86;25876;-81
2021/12/22 05:10:10;;;;;;;36.65;16.60;;;;;;;-2.32;84.20;101672.80;1604015;87;25844;-81
2021/12/22 05:12:37;;;;;;;31.17;15.38;;;;;;;-2.29;84.08;101674.42;1643035;86;27543;-81
2021/12/22 05:15:04;;;;;;;32.45;15.95;;;;;;;-2.29;84.08;101674.42;1642074;86;25759;-81
2021/12/22 05:18:11;;;;;;;28.65;13.93;;;;;;;-2.26;84.21;101670.30;1650204;86;25753;-81
2021/12/22 05:20:07;;;;;;;24.67;13.95;;;;;;;-2.33;84.11;101675.02;1639587;86;26566;-81
2021/12/22 05:22:33;;;;;;;28.10;15.13;;;;;;;-2.33;84.11;101675.02;1640079;86;26029;-81
2021/12/22 05:24:59;;;;;;;28.45;13.88;;;;;;;-2.33;84.13;101672.88;1638172;86;27443;-82
2021/12/22 05:27:26;;;;;;;24.60;13.62;;;;;;;-2.32;84.30;101675.42;1609871;87;26092;-82
2021/12/22 05:29:52;;;;;;;29.23;15.98;;;;;;;-2.35;84.09;101677.73;1653749;86;25312;-82
2021/12/22 05:32:20;;;;;;;28.35;14.75;;;;;;;-2.35;84.23;101680.81;1632983;85;26152;-81
2021/12/22 05:34:46;;;;;;;26.93;14.13;;;;;;;-2.34;84.31;101679.89;1646206;86;25869;-82
2021/12/22 05:37:12;;;;;;;29.00;12.85;;;;;;;-2.38;84.18;101680.53;1616028;87;27453;-81
2021/12/22 05:39:39;;;;;;;28.32;13.88;;;;;;;-2.41;84.45;101682.44;1615880;88;25873;-81
2021/12/22 05:42:05;;;;;;;29.95;14.90;;;;;;;-2.41;84.45;101682.44;1642090;86;26699;-81
2021/12/22 05:44:32;;;;;;;26.33;13.38;;;;;;;-2.42;84.38;101680.27;1645109;85;25839;-83
2021/12/22 05:46:58;;;;;;;27.98;14.75;;;;;;;-2.41;84.34;101686.38;1648559;86;25769;-81
2021/12/22 05:49:24;;;;;;;28.07;14.18;;;;;;;-2.41;84.24;101690.31;1648011;86;27630;-80
2021/12/22 05:51:51;;;;;;;28.67;15.40;;;;;;;-2.43;84.26;101690.39;1651390;86;25862;-81
2021/12/22 05:54:17;;;;;;;29.70;15.63;;;;;;;-2.38;84.47;101692.79;1633460;86;25428;-81
2021/12/22 05:56:43;;;;;;;28.25;14.53;;;;;;;-2.44;84.25;101697.05;1647650;86;25815;-81
2021/12/22 05:59:09;;;;;;;29.72;13.80;;;;;;;-2.44;84.25;101697.05;1644169;86;25802;-81
2021/12/22 06:01:36;;;;;;;27.87;13.88;;;;;;;-2.41;83.93;101703.42;1648292;86;27469;-81
2021/12/22 06:04:03;;;;;;;26.17;14.28;;;;;;;-2.44;84.30;101709.67;1647739;86;25859;-81
2021/12/22 06:06:30;;;;;;;25.05;13.08;;;;;;;-2.44;84.36;101718.03;1614946;87;25800;-81
2021/12/22 06:08:56;;;;;;;29.98;12.53;;;;;;;-2.44;84.37;101718.85;1648985;86;25823;-82
2021/12/22 06:11:23;;;;;;;27.07;13.65;;;;;;;-2.46;84.32;101719.88;1650727;86;26078;-81
2021/12/22 06:13:49;;;;;;;26.95;13.83;;;;;;;-2.47;84.39;101724.27;1635979;86;27464;-81
2021/12/22 06:16:15;;;;;;;24.40;14.30;;;;;;;-2.43;84.43;101732.38;1651841;85;26001;-81
2021/12/22 06:18:44;;;;;;;30.12;14.78;;;;;;;-2.42;84.28;101737.16;1651598;85;25783;-81
2021/12/22 06:21:12;;;;;;;29.40;17.27;;;;;;;-2.41;84.37;101729.20;1641590;86;25941;-81
2021/12/22 06:23:39;;;;;;;34.48;15.30;;;;;;;-2.42;84.08;101733.23;1638152;86;26445;-81
2021/12/22 06:26:07;;;;;;;33.55;16.67;;;;;;;-2.46;84.06;101738.24;1650897;86;27469;-81
2021/12/22 06:28:33;;;;;;;34.20;15.80;;;;;;;-2.47;84.06;101742.63;1644142;85;26077;-81
2021/12/22 06:30:59;;;;;;;31.45;15.55;;;;;;;-2.48;84.00;101745.34;1640901;86;25794;-82
2021/12/22 06:33:25;;;;;;;31.50;16.65;;;;;;;-2.46;84.13;101748.73;1653116;86;25920;-81
2021/12/22 06:35:52;;;;;;;35.80;17.90;;;;;;;-2.46;84.13;101748.73;1643796;86;26467;-80
2021/12/22 06:38:18;;;;;;;34.53;16.50;;;;;;;-2.47;83.89;101746.57;1656568;86;27984;-80
2021/12/22 06:40:44;;;;;;;40.15;17.27;;;;;;;-2.47;83.88;101754.89;1640926;84;25397;-81
2021/12/22 06:43:11;;;;;;;35.45;16.30;;;;;;;-2.55;83.85;101742.63;1637980;86;25843;-81
2021/12/22 06:45:37;;;;;;;37.15;16.70;;;;;;;-2.43;83.83;101762.99;1640200;86;25913;-80
2021/12/22 06:48:04;;;;;;;35.28;17.55;;;;;;;-2.43;83.83;101762.99;1653323;85;25970;-81
2021/12/22 06:50:30;;;;;;;35.45;16.23;;;;;;;-2.41;83.79;101765.94;1648367;86;27477;-82
2021/12/22 06:52:56;;;;;;;36.75;16.70;;;;;;;-2.37;83.76;101773.18;1603572;87;25856;-81
2021/12/22 06:55:22;;;;;;;33.78;16.25;;;;;;;-2.34;83.71;101775.66;1642308;86;25763;-81
2021/12/22 06:57:49;;;;;;;37.98;18.05;;;;;;;-2.36;83.52;101786.70;1639146;86;25768;-81
2021/12/22 07:00:15;;;;;;;37.38;17.17;;;;;;;-2.37;83.61;101783.22;1646716;86;25930;-81
2021/12/22 07:02:42;;;;;;;32.55;17.02;;;;;;;-2.37;83.61;101783.22;1644714;86;27440;-81
2021/12/22 07:05:11;;;;;;;36.20;18.25;;;;;;;-2.41;83.42;101776.88;1605357;87;26103;-80
2021/12/22 07:07:40;;;;;;;35.98;16.45;;;;;;;-2.43;83.23;101787.46;1635620;86;25340;-80
2021/12/22 07:10:13;;;;;;;31.90;14.23;;;;;;;-2.44;83.40;101788.86;1654735;86;26641;-80
2021/12/22 07:12:48;;;;;;;35.33;16.20;;;;;;;-2.46;83.17;101786.28;1642298;86;25826;-80
2021/12/22 07:15:17;;;;;;;37.95;16.62;;;;;;;-2.51;83.15;101789.62;1642834;86;27498;-81
2021/12/22 07:17:46;;;;;;;29.87;15.20;;;;;;;-2.53;83.05;101794.55;1657309;86;26543;-83
2021/12/22 07:20:14;;;;;;;29.50;15.35;;;;;;;-2.59;82.90;101790.91;1650566;86;25822;-83
2021/12/22 07:22:41;;;;;;;33.18;15.08;;;;;;;-2.64;82.90;101787.20;1638852;86;25848;-83
2021/12/22 07:25:10;;;;;;;34.27;19.42;;;;;;;-2.62;83.04;101786.66;1605652;87;26550;-82
2021/12/22 07:27:36;;;;;;;28.85;15.85;;;;;;;-2.59;83.10;101790.91;1584314;89;27565;-82
2021/12/22 07:30:04;;;;;;;37.48;16.25;;;;;;;-2.58;82.93;101795.22;1595089;87;25395;-83
2021/12/22 07:32:31;;;;;;;32.33;15.43;;;;;;;-2.58;83.00;101801.78;1646555;86;25726;-83
2021/12/22 07:35:21;;;;;;;33.05;16.48;;;;;;;-2.60;82.93;101793.14;1645714;86;25832;-83
2021/12/22 07:38:13;;;;;;;39.63;18.05;;;;;;;-2.59;82.98;101800.92;1643836;85;26053;-83
2021/12/22 07:40:39;;;;;;;30.25;15.53;;;;;;;-2.57;83.04;101803.04;1584950;88;27743;-83
2021/12/22 07:43:05;;;;;;;35.63;17.65;;;;;;;-2.59;82.86;101802.23;1645163;86;25569;-82
2021/12/22 07:45:32;;;;;;;38.78;19.50;;;;;;;-2.57;82.99;101808.73;1645610;86;25577;-83
2021/12/22 07:47:58;;;;;;;37.42;17.98;;;;;;;-2.60;82.97;101801.86;1637333;86;26122;-83
2021/12/22 07:50:25;;;;;;;49.55;21.30;;;;;;;-2.56;82.85;101806.03;1653614;86;25770;-82
2021/12/22 07:52:51;;;;;;;37.75;16.75;;;;;;;-2.61;82.94;101797.52;1653519;86;28704;-84
2021/12/22 07:55:17;;;;;;;39.75;18.02;;;;;;;-2.55;82.67;101806.44;1624566;87;25969;-83
2021/12/22 07:57:43;;;;;;;47.75;20.95;;;;;;;-2.64;82.59;101800.77;1636938;86;25573;-83
2021/12/22 08:00:11;;;;;;;41.10;21.33;;;;;;;-2.59;82.86;101811.41;1605646;87;25813;-82
2021/12/22 08:02:40;;;;;;;34.00;17.55;;;;;;;-2.58;82.80;101819.69;1651920;86;25933;-83
2021/12/22 08:05:07;;;;;;;36.53;16.67;;;;;;;-2.58;82.58;101822.77;1608070;87;27450;-83
2021/12/22 08:07:34;;;;;;;39.13;18.62;;;;;;;-2.57;82.77;101816.16;1660309;86;26031;-83
2021/12/22 08:10:04;;;;;;;38.90;19.95;;;;;;;-2.57;82.77;101816.16;1628940;87;25991;-83
2021/12/22 08:12:30;;;;;;;48.60;21.87;;;;;;;-2.60;82.90;101808.41;1576982;89;25926;-82
2021/12/22 08:14:56;;;;;;;248.35;94.85;;;;;;;-2.50;82.90;101820.16;1594744;89;25868;-83
2021/12/22 08:17:23;;;;;;;128.10;57.53;;;;;;;-2.42;82.69;101811.93;1634284;87;27456;-83
2021/12/22 08:19:49;;;;;;;176.97;72.62;;;;;;;-2.42;82.69;101811.93;1630991;87;25900;-83
2021/12/22 08:22:15;;;;;;;72.92;39.08;;;;;;;-2.44;82.58;101811.98;1661350;86;25543;-83
2021/12/22 08:24:42;;;;;;;48.02;24.43;;;;;;;-2.45;82.44;101822.11;1609543;86;26665;-82
2021/12/22 08:27:08;;;;;;;44.38;20.75;;;;;;;-2.45;82.44;101822.11;1649335;86;25782;-83
2021/12/22 08:29:36;;;;;;;40.30;19.62;;;;;;;-2.44;82.35;101816.41;1646195;85;27440;-83
2021/12/22 08:32:03;;;;;;;44.35;19.62;;;;;;;-2.44;82.49;101813.78;1650891;86;25419;-83
2021/12/22 08:34:36;;;;;;;41.98;17.55;;;;;;;-2.41;82.77;101821.48;1642465;86;25664;-83
2021/12/22 08:39:42;;;;;;;41.33;20.08;;;;;;;-2.38;82.24;101826.14;1659128;85;25792;-81
2021/12/22 08:42:10;;;;;;;39.98;18.87;;;;;;;-2.43;82.13;101816.32;1630096;86;27506;-81
2021/12/22 08:44:36;;;;;;;36.28;18.05;;;;;;;-2.37;82.30;101827.83;1646008;86;26012;-81
2021/12/22 08:47:04;;;;;;;35.98;18.17;;;;;;;-2.37;82.22;101832.22;1630943;86;25880;-81
2021/12/22 08:49:30;;;;;;;31.05;15.58;;;;;;;-2.37;82.22;101832.22;1642971;86;26001;-81
2021/12/22 08:51:57;;;;;;;34.00;17.45;;;;;;;-2.38;82.07;101835.78;1645481;86;26058;-82
2021/12/22 08:54:23;;;;;;;33.48;17.32;;;;;;;-2.42;81.95;101828.50;1645422;86;27462;-81
2021/12/22 08:56:49;;;;;;;39.95;18.65;;;;;;;-2.44;81.81;101836.08;1659755;86;25853;-81
2021/12/22 08:59:16;;;;;;;44.80;21.57;;;;;;;-2.44;82.10;101837.39;1652796;86;25751;-81
2021/12/22 09:01:45;;;;;;;58.78;27.75;;;;;;;-2.43;82.11;101838.62;1641564;86;25751;-81
2021/12/22 09:04:11;;;;;;;48.55;21.75;;;;;;;-2.38;82.25;101840.57;1604895;88;25846;-83
2021/12/22 09:06:38;;;;;;;35.98;18.48;;;;;;;-2.34;82.23;101851.75;1650660;86;27523;-81
2021/12/22 09:09:06;;;;;;;66.35;33.10;;;;;;;-2.35;81.99;101850.05;1649335;86;25969;-81
2021/12/22 09:11:32;;;;;;;54.60;25.17;;;;;;;-2.33;82.19;101848.68;1653458;85;25583;-81
2021/12/22 09:13:58;;;;;;;42.00;22.60;;;;;;;-2.28;82.61;101850.14;1641735;86;26308;-81
2021/12/22 09:16:24;;;;;;;40.90;19.65;;;;;;;-2.25;82.38;101854.39;1663628;86;26096;-81
2021/12/22 09:18:51;;;;;;;45.30;21.25;;;;;;;-2.28;82.04;101851.45;1651514;85;28776;-81
2021/12/22 09:21:17;;;;;;;41.30;18.98;;;;;;;-2.25;82.25;101846.52;1655725;86;26455;-81
2021/12/22 09:23:43;;;;;;;43.45;18.48;;;;;;;-2.24;81.85;101849.52;1642660;85;26228;-81
2021/12/22 09:26:10;;;;;;;44.48;21.23;;;;;;;-2.30;81.85;101839.33;1645729;86;26622;-81
2021/12/22 09:28:37;;;;;;;59.30;28.25;;;;;;;-2.25;81.96;101843.90;1624027;86;25811;-81
2021/12/22 09:31:05;;;;;;;41.40;21.25;;;;;;;-2.25;81.82;101849.14;1630836;86;28253;-82
2021/12/22 09:33:33;;;;;;;44.35;21.80;;;;;;;-2.23;81.83;101848.61;1641899;86;25866;-80
2021/12/22 09:36:00;;;;;;;39.03;17.35;;;;;;;-2.23;81.83;101848.61;1664385;85;25806;-81
2021/12/22 09:38:27;;;;;;;41.95;18.60;;;;;;;-2.24;81.74;101851.69;1654266;85;26619;-81
2021/12/22 09:40:53;;;;;;;34.45;18.32;;;;;;;-2.28;81.64;101853.22;1647530;86;25746;-81
2021/12/22 09:43:19;;;;;;;37.05;17.52;;;;;;;-2.25;81.87;101847.84;1651806;85;26948;-80
2021/12/22 09:45:50;;;;;;;39.75;17.70;;;;;;;-2.22;81.87;101847.70;1658746;86;25809;-83
2021/12/22 09:50:51;;;;;;;33.75;16.70;;;;;;;-2.18;81.70;101844.82;1651544;86;25909;-84
2021/12/22 09:53:20;;;;;;;31.90;17.27;;;;;;;-2.24;81.52;101829.38;1648028;86;25942;-82
2021/12/22 09:55:48;;;;;;;48.98;28.27;;;;;;;-2.15;81.74;101842.52;1635910;85;28338;-83
2021/12/22 09:58:16;;;;;;;40.90;23.65;;;;;;;-2.12;81.58;101839.30;1632200;87;25680;-84
2021/12/22 10:00:45;;;;;;;29.07;16.48;;;;;;;-2.11;81.49;101842.74;1640830;86;25564;-83
2021/12/22 10:03:12;;;;;;;37.65;16.27;;;;;;;-2.09;81.56;101844.83;1664873;85;26247;-83
2021/12/22 10:05:41;;;;;;;33.38;15.30;;;;;;;-2.09;81.56;101844.83;1648074;86;25772;-83
2021/12/22 10:08:15;;;;;;;34.38;16.15;;;;;;;-2.07;81.27;101852.16;1607862;88;27465;-83
2021/12/22 10:10:46;;;;;;;39.80;18.07;;;;;;;-2.09;81.18;101837.81;1646071;86;26272;-83
2021/12/22 10:13:19;;;;;;;39.78;18.05;;;;;;;-2.06;81.51;101835.05;1607154;88;25317;-83
2021/12/22 10:15:47;;;;;;;33.80;18.07;;;;;;;-2.06;81.44;101831.11;1644764;86;25994;-83
2021/12/22 10:18:21;;;;;;;38.67;16.93;;;;;;;-2.03;81.44;101831.42;1607091;89;26121;-83
2021/12/22 10:20:51;;;;;;;33.70;17.17;;;;;;;-1.97;81.61;101833.73;1645496;86;28091;-84
2021/12/22 10:23:27;;;;;;;39.50;17.98;;;;;;;-1.95;81.37;101831.88;1654985;86;25828;-83
2021/12/22 10:26:03;;;;;;;38.65;18.23;;;;;;;-1.96;81.16;101834.11;1658658;86;25743;-83
2021/12/22 10:28:47;;;;;;;41.80;21.12;;;;;;;-1.93;81.46;101831.34;1606324;87;26583;-84
2021/12/22 10:31:15;;;;;;;38.42;20.82;;;;;;;-1.93;81.14;101823.46;1617030;87;25831;-84
2021/12/22 10:33:43;;;;;;;36.50;18.60;;;;;;;-1.91;81.38;101825.55;1637530;86;27623;-83
2021/12/22 10:36:20;;;;;;;34.50;18.75;;;;;;;-1.93;81.28;101823.46;1645350;86;26605;-84
2021/12/22 10:39:00;;;;;;;44.73;20.75;;;;;;;-1.87;81.12;101837.13;1643525;86;25903;-83
2021/12/22 10:41:31;;;;;;;43.02;21.57;;;;;;;-1.86;81.19;101830.11;1645687;86;25737;-83
2021/12/22 10:43:58;;;;;;;37.83;19.15;;;;;;;-1.84;81.03;101830.88;1625595;86;25834;-83
2021/12/22 10:46:31;;;;;;;38.33;16.42;;;;;;;-1.82;81.13;101831.16;1657643;86;27451;-83
2021/12/22 10:49:14;;;;;;;39.88;17.07;;;;;;;-1.79;80.67;101839.36;1650618;86;25948;-83
2021/12/22 10:51:45;;;;;;;35.13;17.30;;;;;;;-1.81;80.63;101835.50;1661410;86;25833;-83
2021/12/22 10:54:16;;;;;;;37.15;18.27;;;;;;;-1.84;80.45;101838.77;1651552;86;25846;-83
2021/12/22 10:56:46;;;;;;;39.40;16.80;;;;;;;-1.87;80.72;101834.51;1637072;85;25819;-83
2021/12/22 10:59:18;;;;;;;34.78;17.98;;;;;;;-1.82;80.62;101836.41;1642441;86;33234;-83
2021/12/22 11:01:59;;;;;;;49.67;23.87;;;;;;;-1.80;80.71;101837.67;1659238;86;25826;-83
2021/12/22 11:04:30;;;;;;;39.83;20.23;;;;;;;-1.74;80.94;101844.78;1647928;86;25333;-83
2021/12/22 11:07:08;;;;;;;45.33;21.93;;;;;;;-1.69;80.95;101844.06;1653451;86;25819;-82
2021/12/22 11:09:36;;;;;;;50.75;22.22;;;;;;;-1.65;80.70;101841.66;1651861;86;26035;-81
2021/12/22 11:12:06;;;;;;;49.90;20.95;;;;;;;-1.68;80.52;101839.66;1659154;86;26977;-82
2021/12/22 11:14:39;;;;;;;53.87;22.20;;;;;;;-1.68;80.60;101837.03;1644540;86;26165;-80
2021/12/22 11:17:13;;;;;;;48.30;21.95;;;;;;;-1.69;80.78;101834.86;1632827;86;26524;-81
2021/12/22 11:20:03;;;;;;;42.10;20.23;;;;;;;-1.69;80.71;101836.17;1657116;85;26512;-80
2021/12/22 11:25:22;;;;;;;71.22;29.15;;;;;;;-1.72;80.79;101833.73;1598760;88;27556;-81
2021/12/22 11:27:53;;;;;;;81.15;32.65;;;;;;;-1.67;81.19;101834.31;1622770;86;25852;-82
2021/12/22 11:30:22;;;;;;;91.42;40.70;;;;;;;-1.62;80.92;101828.83;1659794;86;25978;-82
2021/12/22 11:32:49;;;;;;;97.60;40.12;;;;;;;-1.56;81.20;101829.36;1650644;86;26690;-82